Last 48 Hours

Top Stn/Summit - 11,053ft

15 Minute Data | America/Los_Angeles
as of 5/27/24 12:09 PM PDT
Date & Time Temp (°F) WindChill (°F) RH (%) Dew Pt (°F) Wet Bulb (°F) Wind Dir (°) Wind Spd (mph) Wind Gust (mph) Wind Gst Dir (°) Daily Min Temp (°F) Daily Max Temp (°F) Daily Max Wind (mph)
5/27/24 - 1200 45.0 - 48 26.3 37.6 ESE | 104 1.7 4.4 ENE | 74 37.6 46.3 25.4
5/27/24 - 1145 45.4 - 47 26.3 37.8 SW | 224 1.8 7.7 WNW | 289 37.6 46.3 25.4
5/27/24 - 1130 44.1 - 49 26.3 37.1 WSW | 243 1.9 6.8 E | 83 37.6 44.6 25.4
5/27/24 - 1115 44.1 41.0 52 27.5 37.4 W | 272 5.5 9.6 NW | 324 37.6 44.6 25.4
5/27/24 - 1100 43.5 40.3 52 27.2 37.0 WSW | 237 5.4 11.1 NW | 326 37.6 44.2 25.4
5/27/24 - 1045 43.0 38.2 53 26.8 36.6 NW | 320 7.9 11.8 N | 350 37.6 44.2 25.4
5/27/24 - 1030 42.6 37.5 53 26.5 36.3 WNW | 293 8.6 11.0 N | 350 37.6 44.2 25.4
5/27/24 - 1015 42.4 37.9 52 26.1 36.0 NW | 311 7.2 9.5 N | 350 37.6 44.2 25.4
5/27/24 - 1000 42.4 39.0 51 25.4 35.8 NNW | 341 5.4 8.3 NNW | 338 37.6 44.2 25.4
5/27/24 - 0945 43.1 41.2 50 25.5 36.2 NNW | 330 3.6 5.4 NW | 323 37.6 44.2 25.4
5/27/24 - 0930 43.5 - 48 25.3 36.4 NW | 318 2.9 4.6 NW | 310 37.6 44.2 25.4
5/27/24 - 0915 42.3 - 49 24.5 35.5 NW | 307 0.4 0.4 NW | 323 37.6 44.2 25.4
5/27/24 - 0900 41.9 - 49 24.0 35.2 NW | 313 0.4 0.4 NW | 325 37.6 44.2 25.4
5/27/24 - 0845 43.3 - 46 24.2 36.0 NNW | 330 0.4 0.4 N | 349 37.6 44.2 25.4
5/27/24 - 0830 42.7 - 47 23.7 35.5 W | 265 0.4 0.4 NNW | 333 37.6 43.5 25.4
5/27/24 - 0815 42.7 - 47 23.7 35.5 NNW | 331 0.4 0.4 N | 350 37.6 43.4 25.4
5/27/24 - 0800 42.0 - 48 23.7 35.1 NNW | 329 0.4 0.4 NW | 312 37.6 42.9 25.4
5/27/24 - 0745 41.0 - 49 23.2 34.4 NNW | 336 0.4 0.4 NNW | 334 37.6 42.9 25.4
5/27/24 - 0730 42.2 - 47 23.6 35.2 NW | 317 0.4 0.6 WNW | 302 37.6 42.9 25.4
5/27/24 - 0715 39.7 - 50 22.4 33.4 WNW | 294 0.4 0.5 NNW | 330 37.6 40.9 25.4
5/27/24 - 0700 39.1 - 50 22.2 33.0 SE | 124 0.4 1.0 E | 88 37.6 39.5 25.4
5/27/24 - 0645 38.6 - 52 22.3 32.7 ESE | 113 0.8 1.9 ENE | 75 37.6 39.5 25.4
5/27/24 - 0630 38.4 - 52 22.3 32.6 SSE | 155 1.6 3.3 N | 350 37.6 39.5 25.4
5/27/24 - 0615 38.2 - 52 22.3 32.5 SE | 139 1.3 3.5 E | 83 37.6 39.5 25.4
5/27/24 - 0600 37.9 - 53 22.2 32.3 SSW | 197 1.5 3.9 N | 349 37.6 39.5 25.4
5/27/24 - 0545 37.8 - 53 22.2 32.2 E | 90 1.7 3.9 E | 86 37.6 39.5 25.4
5/27/24 - 0530 38.1 - 53 22.3 32.4 WSW | 254 1.2 3.6 E | 80 37.6 39.5 25.4
5/27/24 - 0515 37.8 34.8 53 22.1 32.2 E | 98 4.0 8.8 ENE | 73 37.6 39.5 25.4
5/27/24 - 0500 37.7 - 52 21.9 32.1 SSE | 168 2.4 7.5 ESE | 121 37.6 39.5 25.4
5/27/24 - 0445 37.9 32.5 52 21.7 32.1 E | 90 7.1 10.4 ENE | 77 37.6 39.5 25.4
5/27/24 - 0430 38.1 30.7 52 21.9 32.3 ESE | 108 11.2 13.4 ENE | 73 37.6 39.5 25.4
5/27/24 - 0415 37.7 30.1 53 22.0 32.1 W | 268 11.7 15.1 N | 350 37.6 39.5 25.4
5/27/24 - 0400 37.7 29.2 53 22.2 32.2 NNW | 336 14.1 17.5 N | 349 37.6 39.5 25.4
5/27/24 - 0345 37.9 28.8 53 22.2 32.3 NNW | 340 15.9 19.3 N | 349 37.7 39.5 25.4
5/27/24 - 0330 38.0 28.7 53 22.2 32.3 NNW | 344 16.7 19.0 N | 350 37.8 39.5 25.4
5/27/24 - 0315 38.1 28.8 53 22.4 32.4 NNW | 334 16.9 20.0 N | 350 37.9 39.5 25.4
5/27/24 - 0300 38.3 28.5 52 22.4 32.6 NW | 316 19.0 21.4 N | 350 38.2 39.5 25.4
5/27/24 - 0245 38.3 28.4 52 22.3 32.6 NW | 313 19.4 21.0 N | 350 38.2 39.5 25.4
5/27/24 - 0230 38.4 28.4 53 22.7 32.7 SSW | 202 19.6 21.0 ENE | 71 38.2 39.5 25.4
5/27/24 - 0215 38.5 28.4 55 23.8 33.1 ESE | 121 20.8 24.4 ENE | 75 38.2 39.5 25.4
5/27/24 - 0200 38.7 28.2 53 23.2 33.1 E | 95 22.6 25.1 E | 79 38.4 39.5 25.4
5/27/24 - 0145 38.8 28.3 52 22.8 33.0 E | 101 22.6 24.3 ENE | 74 38.4 39.5 25.4
5/27/24 - 0130 39.1 28.8 51 22.5 33.1 ESE | 108 22.2 24.4 ENE | 78 38.9 39.5 25.4
5/27/24 - 0115 39.3 28.8 50 22.4 33.2 E | 86 23.1 25.4 ENE | 78 39.1 39.5 25.4
5/27/24 - 0100 39.2 28.8 51 22.5 33.2 E | 88 22.9 24.9 ENE | 78 31.8 44.3 37.3
5/27/24 - 0045 39.3 29.3 51 22.6 33.3 E | 97 21.5 25.2 ENE | 76 31.8 44.3 37.3
5/27/24 - 0030 39.6 29.3 50 22.3 33.3 E | 82 23.0 25.4 ENE | 76 31.8 44.3 37.3
5/27/24 - 0015 39.6 29.0 49 22.2 33.3 E | 87 24.1 27.6 ENE | 77 31.8 44.3 37.3
5/27/24 - 0000 39.7 29.0 50 22.5 33.4 E | 82 24.6 27.3 ENE | 78 31.8 44.3 37.3
5/26/24 - 2345 39.8 29.0 51 23.0 33.6 E | 82 25.3 27.9 E | 81 31.8 44.3 37.3
5/26/24 - 2330 40.0 29.8 51 23.3 33.8 E | 82 22.9 27.3 E | 84 31.8 44.3 37.3
5/26/24 - 2315 40.2 31.0 52 23.9 34.2 E | 82 19.0 22.7 E | 84 31.8 44.3 37.3
5/26/24 - 2300 40.7 32.4 51 24.2 34.5 E | 86 16.1 21.4 E | 83 31.8 44.3 37.3
5/26/24 - 2245 40.9 33.5 50 23.9 34.6 E | 89 13.5 17.9 E | 90 31.8 44.3 37.3
5/26/24 - 2230 41.2 35.1 47 22.3 34.3 E | 97 10.1 12.7 E | 90 31.8 44.3 37.3
5/26/24 - 2215 41.4 35.7 42 19.8 33.7 ESE | 112 9.2 12.3 ESE | 104 31.8 44.3 37.3
5/26/24 - 2200 42.0 37.4 40 19.3 33.9 ESE | 109 7.1 10.9 E | 91 31.8 44.3 37.3
5/26/24 - 2145 41.6 39.9 36 16.3 33.1 SE | 128 3.2 7.6 E | 86 31.8 44.3 37.3
5/26/24 - 2130 40.8 36.3 31 12.7 31.8 S | 183 6.8 9.8 SSW | 194 31.8 44.3 37.3
5/26/24 - 2115 40.2 33.8 35 14.9 31.8 SSW | 197 10.1 11.0 SSW | 200 31.8 44.3 37.3
5/26/24 - 2100 40.2 33.2 42 18.9 32.8 SSW | 201 11.8 13.7 SSW | 201 31.8 44.3 37.3
5/26/24 - 2045 41.4 34.1 56 26.9 35.7 SSW | 200 13.3 15.6 SSW | 200 31.8 44.3 37.3
5/26/24 - 2030 40.9 32.9 53 25.2 34.9 SSW | 201 15.2 17.7 SSW | 199 31.8 44.3 37.3
5/26/24 - 2015 40.4 31.7 54 24.9 34.5 SSW | 199 16.9 18.0 SSW | 200 31.8 44.3 37.3
5/26/24 - 2000 40.6 31.8 54 25.4 34.9 SSW | 197 18.3 20.3 SSW | 198 31.8 44.3 37.3
5/26/24 - 1945 41.1 32.2 54 25.6 35.2 SSW | 196 18.8 21.6 SSW | 193 31.8 44.3 37.3
5/26/24 - 1930 40.2 30.4 56 25.6 34.7 SSW | 194 21.6 24.0 SSW | 194 31.8 44.3 37.3
5/26/24 - 1915 40.4 30.4 55 25.7 34.8 SSW | 195 22.5 26.6 SSW | 192 31.8 44.3 37.3
5/26/24 - 1900 40.2 29.7 56 25.8 34.7 S | 189 24.6 28.8 S | 184 31.8 44.3 37.3
5/26/24 - 1845 41.5 31.5 56 26.8 35.8 S | 190 24.3 30.6 S | 187 31.8 44.3 37.3
5/26/24 - 1830 41.8 31.8 56 27.4 36.1 S | 190 25.0 32.7 S | 187 31.8 44.3 37.3
5/26/24 - 1815 41.4 31.3 55 26.6 35.7 S | 187 24.9 32.0 S | 189 31.8 44.3 37.3
5/26/24 - 1800 41.9 31.8 51 25.2 35.5 S | 183 26.0 32.2 S | 186 31.8 44.3 37.3
5/26/24 - 1745 42.2 32.1 49 24.2 35.4 S | 184 25.9 35.6 S | 184 31.8 44.3 37.3
5/26/24 - 1730 42.0 32.0 48 23.8 35.2 S | 180 25.5 34.6 S | 179 31.8 44.3 37.3
5/26/24 - 1715 42.1 31.9 48 23.6 35.1 S | 179 26.6 37.3 S | 189 31.8 44.3 37.3
5/26/24 - 1700 42.1 31.7 49 24.1 35.3 S | 185 28.0 36.5 SSW | 192 31.8 44.3 37.3
5/26/24 - 1645 42.4 32.3 47 23.5 35.3 S | 182 26.2 37.3 S | 186 31.8 44.3 37.3
5/26/24 - 1630 42.7 32.7 47 23.7 35.5 S | 182 26.9 36.7 SSW | 194 31.8 44.3 36.7
5/26/24 - 1615 43.4 33.9 45 23.2 35.8 S | 183 24.9 33.8 S | 191 31.8 44.3 36.2
5/26/24 - 1600 43.1 33.2 46 23.8 35.8 S | 186 26.8 36.2 S | 186 31.8 44.3 36.2
5/26/24 - 1545 42.6 32.7 47 24.0 35.6 S | 185 26.1 36.2 S | 181 31.8 44.3 36.2
5/26/24 - 1530 43.1 34.0 47 24.0 35.9 S | 186 23.0 35.3 S | 187 31.8 44.3 35.3
5/26/24 - 1515 43.1 33.6 45 23.5 35.7 S | 187 24.6 33.9 S | 189 31.8 44.3 33.9
5/26/24 - 1500 42.9 33.4 46 23.6 35.6 SSW | 194 24.0 30.8 SSW | 195 31.8 44.3 33.2
5/26/24 - 1445 42.9 33.6 46 23.5 35.6 S | 184 23.5 32.3 SSW | 198 31.8 44.3 33.2
5/26/24 - 1430 43.6 34.7 42 22.3 35.6 SSW | 196 22.6 33.2 SSW | 198 31.8 44.3 33.2
5/26/24 - 1415 43.4 35.5 40 20.8 35.1 S | 188 17.5 26.2 SSW | 199 31.8 44.3 26.2
5/26/24 - 1400 43.4 35.6 39 20.2 35.0 S | 185 17.4 25.8 S | 174 31.8 44.3 25.8
5/26/24 - 1345 43.6 36.2 38 19.5 34.9 S | 190 15.9 22.6 S | 189 31.8 44.3 23.8
5/26/24 - 1330 44.0 37.2 36 18.8 34.9 S | 179 14.2 23.1 SSE | 163 31.8 44.3 23.8
5/26/24 - 1315 43.5 36.2 36 18.6 34.6 S | 187 15.4 23.8 S | 185 31.8 43.8 23.8
5/26/24 - 1300 43.3 36.6 37 18.8 34.5 S | 183 13.1 23.4 SSW | 198 31.8 43.7 23.4
5/26/24 - 1245 43.3 36.3 38 19.3 34.6 SSW | 195 14.1 18.0 SSW | 208 31.8 43.7 20.4
5/26/24 - 1230 43.1 36.5 38 18.9 34.5 S | 188 12.7 20.4 S | 185 31.8 43.4 20.4
5/26/24 - 1215 43.1 37.1 38 19.0 34.5 SSW | 193 11.1 16.9 S | 184 31.8 43.4 20.0
5/26/24 - 1200 42.8 37.1 38 18.9 34.3 S | 187 10.0 17.0 S | 185 31.8 43.1 20.0
5/26/24 - 1145 42.6 36.7 36 17.3 33.8 S | 188 10.3 17.3 SSW | 203 31.8 42.9 20.0
5/26/24 - 1130 42.4 37.4 34 16.3 33.4 SSW | 192 8.1 14.2 S | 184 31.8 42.8 20.0
5/26/24 - 1115 42.4 36.8 33 15.0 33.2 SSW | 192 9.4 14.3 S | 189 31.8 42.8 20.0
5/26/24 - 1100 42.2 37.1 32 14.6 33.0 SSW | 198 8.3 12.9 SSW | 196 31.8 42.8 20.0
5/26/24 - 1045 42.2 37.0 31 13.9 32.8 SSW | 200 8.6 14.8 SSW | 194 31.8 42.8 20.0
5/26/24 - 1030 42.4 37.5 30 13.1 32.8 SSW | 202 7.9 10.2 SSW | 206 31.8 42.8 20.0
5/26/24 - 1015 42.4 38.1 28 11.7 32.5 SSW | 200 6.8 9.2 SSW | 196 31.8 42.8 20.0
5/26/24 - 1000 42.0 38.0 25 8.5 31.7 SSW | 201 6.4 10.3 SSW | 210 31.8 42.5 20.0
5/26/24 - 0945 42.0 37.4 24 7.8 31.6 SSW | 197 7.3 10.8 SSW | 194 31.8 42.5 20.0
5/26/24 - 0930 41.8 36.3 23 7.1 31.4 SSW | 199 9.0 10.8 SSW | 196 31.8 42.1 20.0
5/26/24 - 0915 40.7 33.9 26 8.6 31.0 SSW | 198 11.7 14.1 SSW | 198 31.8 41.7 20.0
5/26/24 - 0900 40.6 33.2 27 9.2 31.0 SSW | 199 13.1 15.3 SSW | 199 31.8 41.7 20.0
5/26/24 - 0845 40.6 33.0 26 8.6 30.9 SSW | 197 13.8 15.9 SSW | 196 31.8 41.7 20.0
5/26/24 - 0830 38.8 30.5 29 8.8 29.8 SSW | 197 14.5 15.7 SSW | 196 31.8 39.6 20.0
5/26/24 - 0815 37.3 28.5 30 8.4 28.9 SSW | 196 14.6 16.7 SSW | 197 31.8 38.0 20.0
5/26/24 - 0800 36.7 27.3 29 7.3 28.3 SSW | 196 16.0 17.1 SSW | 196 31.8 37.0 20.0
5/26/24 - 0745 36.6 27.0 27 6.1 28.0 SSW | 196 16.4 17.3 SSW | 196 31.8 37.0 20.0
5/26/24 - 0730 36.6 27.0 28 6.4 28.1 SSW | 196 16.3 17.2 SSW | 196 31.8 36.9 20.0
5/26/24 - 0715 35.9 25.9 30 7.1 27.8 SSW | 196 17.1 18.1 SSW | 196 31.8 36.5 20.0
5/26/24 - 0700 35.2 24.9 31 7.6 27.4 SSW | 196 17.2 18.0 SSW | 196 31.8 35.3 20.0
5/26/24 - 0645 34.7 24.6 32 7.9 27.2 SSW | 196 16.5 18.0 SSW | 196 31.8 35.3 20.0
5/26/24 - 0630 33.6 23.4 35 8.8 26.6 SSW | 195 15.9 17.3 SSW | 195 31.8 34.5 20.0
5/26/24 - 0615 33.0 22.4 36 9.0 26.2 SSW | 192 16.4 18.0 SSW | 192 31.8 34.5 20.0
5/26/24 - 0600 32.0 21.2 37 8.9 25.6 SSW | 194 16.1 17.3 SSW | 196 31.8 34.5 20.0
5/26/24 - 0545 32.5 22.0 39 10.2 26.2 SSW | 198 15.8 17.2 SSW | 199 31.9 34.5 20.0
5/26/24 - 0530 32.7 22.4 41 11.7 26.6 SSW | 200 15.2 17.1 SSW | 199 32.2 34.5 20.0
5/26/24 - 0515 33.3 23.3 41 12.2 27.1 SSW | 200 15.1 16.9 SSW | 198 32.6 34.5 20.0
5/26/24 - 0500 33.6 23.8 42 13.2 27.4 SSW | 199 14.7 15.6 SSW | 199 32.6 34.5 20.0
5/26/24 - 0445 34.3 24.8 39 11.6 27.6 SSW | 199 14.1 15.2 SSW | 198 32.6 34.5 20.0
5/26/24 - 0430 34.0 24.8 41 12.9 27.6 SSW | 201 13.2 14.3 SSW | 202 32.6 34.4 20.0
5/26/24 - 0415 33.8 24.5 45 14.5 27.8 SSW | 202 13.4 14.4 SSW | 204 32.6 34.3 20.0
5/26/24 - 0400 33.1 23.2 48 15.4 27.6 SSW | 196 14.5 16.0 SSW | 194 32.6 34.3 20.0
5/26/24 - 0345 33.0 22.6 52 17.4 28.0 SSW | 193 15.9 18.2 SSW | 193 32.6 34.3 20.0
5/26/24 - 0330 33.0 22.3 56 18.8 28.3 SSW | 193 16.6 20.0 S | 189 32.7 34.3 20.0
5/26/24 - 0315 33.5 23.7 58 20.4 29.1 SSW | 194 14.5 15.8 SSW | 195 32.7 34.3 16.7
5/26/24 - 0300 33.7 23.7 65 23.0 30.0 SSW | 197 15.2 16.7 SSW | 196 32.7 34.3 16.7
5/26/24 - 0245 32.8 23.9 71 24.4 29.8 SSW | 201 11.9 13.0 SSW | 200 32.7 33.9 13.0
5/26/24 - 0230 33.4 25.0 59 20.3 29.0 SSW | 200 10.8 12.6 SSW | 200 33.1 33.9 12.6
5/26/24 - 0215 33.5 25.8 54 18.5 28.6 SSW | 201 9.5 10.9 SSW | 200 33.2 33.9 10.9
5/26/24 - 0200 33.8 26.6 48 16.4 28.2 SSW | 200 8.7 10.4 SSW | 199 33.3 33.9 10.4
5/26/24 - 0145 33.5 26.5 55 18.9 28.7 SSW | 200 8.4 9.8 SSW | 200 33.3 33.7 9.8
5/26/24 - 0130 33.5 26.9 58 20.5 29.1 SSW | 200 7.5 9.5 SSW | 199 33.3 33.7 9.5
5/26/24 - 0115 33.5 27.2 59 20.7 29.2 SSW | 197 7.1 8.0 SSW | 197 33.3 33.7 8.0
5/26/24 - 0100 33.6 27.2 59 20.7 29.2 SSW | 197 7.3 8.7 SSW | 199 24.2 38.4 52.9
5/26/24 - 0045 33.4 26.4 67 23.6 29.9 SSW | 197 8.2 9.7 SSW | 197 24.2 38.4 52.9
5/26/24 - 0030 33.0 24.8 80 27.5 31.0 SSW | 199 10.5 13.2 SSW | 200 24.2 38.4 52.9
5/26/24 - 0015 33.2 23.8 78 27.0 30.9 SSW | 202 13.4 14.4 SSW | 201 24.2 38.4 52.9
5/26/24 - 0000 33.4 24.3 78 27.3 31.1 SSW | 205 12.6 13.6 SSW | 207 24.2 38.4 52.9
5/25/24 - 2345 33.5 24.6 82 28.6 31.6 SSW | 206 12.2 13.2 SSW | 208 24.2 38.4 52.9
5/25/24 - 2330 33.4 24.1 85 29.4 31.8 SSW | 202 13.1 14.9 SSW | 199 24.2 38.4 52.9
5/25/24 - 2315 33.4 24.3 88 30.2 32.1 SSW | 203 12.5 13.9 SSW | 202 24.2 38.4 52.9
5/25/24 - 2300 33.4 24.3 92 31.4 32.6 SSW | 204 12.6 13.7 SSW | 203 24.2 38.4 52.9
5/25/24 - 2245 33.2 24.2 94 31.7 32.6 SSW | 200 12.3 13.9 SSW | 199 24.2 38.4 52.9
5/25/24 - 2230 33.3 23.7 93 31.6 32.6 SSW | 201 13.8 15.2 SSW | 201 24.2 38.4 52.9
5/25/24 - 2215 33.4 24.0 92 31.2 32.5 SSW | 198 13.2 15.0 SSW | 198 24.2 38.4 52.9
5/25/24 - 2200 33.4 24.3 92 31.4 32.6 SSW | 196 12.6 14.8 SSW | 196 24.2 38.4 52.9
5/25/24 - 2145 33.5 23.8 92 31.3 32.6 SSW | 199 14.3 16.7 SSW | 196 24.2 38.4 52.9
5/25/24 - 2130 33.4 23.9 94 31.8 32.7 SSW | 196 13.5 18.0 SSW | 202 24.2 38.4 52.9
5/25/24 - 2115 33.1 22.9 100 33.1 33.1 SSW | 198 15.4 18.1 SSW | 200 24.2 38.4 52.9
5/25/24 - 2100 33.2 22.4 99 32.9 33.0 SSW | 194 17.2 22.7 SSW | 200 24.2 38.4 52.9
5/25/24 - 2045 33.7 22.4 95 32.5 33.2 SSW | 198 19.6 22.4 SSW | 198 24.2 38.4 52.9
5/25/24 - 2030 35.4 25.0 88 32.2 34.1 SSW | 203 18.1 21.1 SSW | 201 24.2 38.4 52.9
5/25/24 - 2015 34.1 23.8 95 32.9 33.6 SSW | 198 16.6 20.5 SSW | 201 24.2 38.4 52.9
5/25/24 - 2000 35.9 25.4 90 33.2 34.8 SSW | 196 18.8 24.2 SSW | 197 24.2 38.4 52.9
5/25/24 - 1945 37.5 27.7 87 34.1 36.1 SSW | 201 18.1 20.3 SSW | 200 24.2 38.4 52.9
5/25/24 - 1930 36.3 26.0 92 34.2 35.5 SSW | 199 18.8 21.2 SSW | 200 24.2 37.6 52.9
5/25/24 - 1915 35.1 23.9 98 34.6 34.9 SSW | 196 20.6 25.8 SSW | 194 24.2 37.6 52.9
5/25/24 - 1900 35.0 23.7 99 34.7 34.9 SSW | 194 20.8 26.9 S | 189 24.2 37.6 52.9
5/25/24 - 1845 35.5 23.8 96 34.6 35.2 SSW | 192 23.0 30.0 S | 190 24.2 37.6 52.9
5/25/24 - 1830 35.4 23.4 96 34.4 35.0 SSW | 193 24.0 28.6 S | 191 24.2 37.6 52.9
5/25/24 - 1815 35.3 22.9 93 33.5 34.6 S | 189 26.3 32.5 S | 176 24.2 37.6 52.9
5/25/24 - 1800 35.3 22.8 89 32.5 34.2 S | 190 26.5 32.3 S | 191 24.2 37.6 52.9
5/25/24 - 1745 35.4 23.4 88 32.1 34.1 S | 189 24.5 32.3 S | 191 24.2 37.6 52.9
5/25/24 - 1730 35.3 22.6 88 32.1 34.0 SSW | 195 27.1 37.8 SSW | 192 24.2 37.6 52.9
5/25/24 - 1715 35.4 23.1 87 32.0 34.0 S | 187 25.6 33.3 S | 180 24.2 37.6 52.9
5/25/24 - 1700 35.6 23.6 86 31.8 34.0 S | 187 24.5 33.9 S | 185 24.2 37.6 52.9
5/25/24 - 1645 36.0 24.6 81 30.8 33.9 SSW | 192 22.5 29.0 SSW | 203 24.2 37.6 52.9
5/25/24 - 1630 36.7 25.3 77 30.2 34.1 S | 189 23.6 31.9 S | 178 24.2 37.6 52.9
5/25/24 - 1615 36.9 25.8 77 30.3 34.3 S | 185 22.8 34.4 S | 174 24.2 37.4 52.9
5/25/24 - 1600 36.1 24.1 78 29.9 33.7 S | 182 25.3 33.9 S | 187 24.2 37.4 52.9
5/25/24 - 1545 36.6 24.4 76 29.7 33.8 S | 186 26.9 36.9 S | 180 24.2 37.4 52.9
5/25/24 - 1530 36.1 23.8 77 29.6 33.6 S | 187 27.1 38.4 S | 176 24.2 36.9 52.9
5/25/24 - 1515 36.1 24.4 76 29.2 33.4 S | 186 24.4 33.9 SSW | 196 24.2 36.6 52.9
5/25/24 - 1500 35.3 23.3 78 29.1 32.9 S | 184 24.3 37.8 S | 176 24.2 36.3 52.9
5/25/24 - 1445 35.4 23.4 75 28.4 32.7 S | 182 24.4 32.8 S | 189 24.2 36.0 52.9
5/25/24 - 1430 34.8 22.4 76 28.0 32.2 S | 189 25.0 39.0 S | 190 24.2 35.7 52.9
5/25/24 - 1415 34.6 21.7 75 27.4 31.9 S | 182 27.4 35.8 SSW | 195 24.2 35.1 52.9
5/25/24 - 1400 34.4 22.1 74 27.0 31.6 S | 182 24.3 34.8 S | 172 24.2 35.1 52.9
5/25/24 - 1345 34.3 22.3 74 26.9 31.5 S | 187 22.5 30.9 S | 179 24.2 35.1 52.9
5/25/24 - 1330 33.4 21.1 75 26.4 30.8 S | 186 23.0 31.7 S | 186 24.2 33.9 52.9
5/25/24 - 1315 33.4 20.5 74 26.0 30.6 S | 186 25.0 35.9 S | 187 24.2 33.9 52.9
5/25/24 - 1300 32.8 18.6 75 25.7 30.2 S | 190 30.2 42.6 S | 189 24.2 33.3 52.9
5/25/24 - 1245 32.2 17.7 74 24.9 29.6 S | 190 31.2 43.6 S | 180 24.2 32.5 52.9
5/25/24 - 1230 31.7 17.0 76 24.9 29.2 S | 188 31.1 44.1 S | 188 24.2 32.0 52.9
5/25/24 - 1215 31.1 15.8 76 24.5 28.7 S | 186 33.0 41.9 S | 173 24.2 31.4 52.9
5/25/24 - 1200 30.9 15.3 77 24.6 28.6 S | 188 34.0 47.1 S | 189 24.2 31.4 52.9
Max 45.4 41.2 100 34.7 37.8 - 34.0 47.1 - 39.1 46.3 52.9
Avg 38.2 28.8 56 22.7 32.8 - 15.5 19.8 - - - -
Min 30.9 15.3 23 6.1 25.6 - 0.4 0.4 - 24.2 31.4 8.0